Weather at Castellon de la Plana Aerodrome

Public forecast

Using degrees Celsius for public forecast. Weather courtesy of forecast.io.

Closest aviation weather report (METAR) to Castellon de la Plana Aerodrome

Closest report is Valencia Airport, 38.6 nm (71.4 km) SW. Retrieved 2021/06/19 20:30 UTC (0 seconds ago):

LEVC 192030Z 10004KT 9999 FEW012 23/20 Q1015 NOSIG

Closest aviation forecast (TAF) to Castellon de la Plana Aerodrome

Closest forecast is Castell√≥n-Costa Azahar Airport, 13.1 nm (24.2 km) N. Retrieved 2021/06/19 18:00 UTC (2 hours ago):

TAF LECH 191700Z 1918/2018 VRB04KT 9999 FEW025 TX30/2013Z TN16/2006Z PROB40 TEMPO 2001/2006 4000 TSRA FEW050CB